• Join FlightAware (Why Join?)
  • Login
  • US Flag 
01:24AM EDT


 

Airport Tracker/Info


-or-


 

Live Flight TrackerFlight Track Log ✈ DAL268 ✈ 19-Jun-2013 ✈ KSFO - KJFK

Flight Track Log - Related Links

Times and Time Zones

All times are in EDT time to prevent confusion due to time zone crossing. See the DAL268 flight status page for this flight to view local times or setup timezone preferences in your user account.

Time Position Orientation Groundspeed Altitude Reporting Facility
EDT Latitude Longitude Course Direction KTS MPH feet Rate Location/Type
02:38PM 37.6140 -122.3810 North 2 2  Level FlightAware
02:41PM 37.6110 -122.3840 218° Southwest 26 30  Level FlightAware
02:42PM 37.6110 -122.3830 90° East 20 23 60 Level FlightAware
02:42PM 37.6090 -122.3840 202° Southwest 23 26 60 Level FlightAware
02:43PM 37.6080 -122.3850 218° Southwest 20 23 60 Level FlightAware
02:45PM 37.7920 -122.1913 38° Northeast  Level FlightAware Approximate
02:45PM 37.6080 -122.3840 38° Northeast 12 14  Level FlightAware
02:46PM 37.6070 -122.3840 180° South 60 Level FlightAware
02:48PM 37.7855 -122.1978 38° Northeast  Level FlightAware Approximate
02:49PM 37.8834 -122.1000 38° Northeast  Level FlightAware Approximate
02:50PM 37.9812 -122.0021 38° Northeast  Level FlightAware Approximate
02:50PM 37.6060 -122.3830 38° Northeast 12 14  Level FlightAware
02:52PM 37.7790 -122.2043 38° Northeast  Level FlightAware Approximate
02:52PM 37.6060 -122.3820 38° Northeast  Level FlightAware
02:54PM 37.6060 -122.3810 90° East 14 16 180 Level FlightAware
02:55PM 37.6070 -122.3810 360° North 24 28 420 Level FlightAware
02:56PM 37.6150 -122.3750 31° Northeast 140 161 1,020 Level FlightAware
02:56PM 37.6240 -122.3700 24° Northeast 175 201 1,980 Level FlightAware
02:56PM 37.6366 -122.3610 29° Northeast 173 199 1,000 3,900 Climbing FlightAware ADS-B
02:56PM 37.6393 -122.3580 41° Northeast 174 200 1,300 3,000 Climbing FlightAware ADS-B
02:56PM 37.6417 -122.3560 33° Northeast 175 201 1,400 1,800 Climbing FlightAware ADS-B
02:57PM 37.6463 -122.3490 50° Northeast 183 211 1,700 1,680 Climbing FlightAware ADS-B
02:57PM 37.6562 -122.3350 48° Northeast 206 237 2,100 1,740 Climbing FlightAware ADS-B
02:57PM 37.6666 -122.3210 47° Northeast 220 253 2,600 1,980 Climbing FlightAware ADS-B
02:57PM 37.6775 -122.3060 47° Northeast 238 274 3,100 2,040 Climbing FlightAware ADS-B
02:58PM 37.6903 -122.2890 46° Northeast 255 293 3,700 2,340 Climbing FlightAware ADS-B
02:58PM 37.6953 -122.2820 48° Northeast 257 296 4,000 3,060 Climbing FlightAware ADS-B
02:58PM 37.7185 -122.2580 39° Northeast 260 299 5,300 3,180 Climbing FlightAware ADS-B
02:59PM 37.7375 -122.2380 40° Northeast 263 303 6,400 3,120 Climbing FlightAware ADS-B
02:59PM 37.7726 -122.2040 37° Northeast 274 315 8,200 2,880 Climbing FlightAware ADS-B
02:59PM 37.7911 -122.1860 38° Northeast 279 321 9,000 2,700 Climbing FlightAware ADS-B
03:00PM 37.8143 -122.1640 37° Northeast 289 333 10,000 2,040 Climbing FlightAware ADS-B
03:00PM 37.8483 -122.1320 37° Northeast 321 369 10,800 1,320 Climbing FlightAware ADS-B
03:01PM 37.8877 -122.0940 37° Northeast 355 409 11,400 1,260 Climbing FlightAware ADS-B
03:01PM 37.9292 -122.0530 38° Northeast 384 442 12,100 1,920 Climbing FlightAware ADS-B
03:02PM 37.9780 -122.0060 37° Northeast 394 453 13,500 2,400 Climbing FlightAware ADS-B
03:02PM 38.0229 -121.9630 37° Northeast 401 461 14,700 2,280 Climbing FlightAware ADS-B
03:03PM 38.0772 -121.9100 38° Northeast 412 474 16,100 2,040 Climbing FlightAware ADS-B
03:04PM 38.1790 -121.8110 37° Northeast 432 497 18,300 1,920 Climbing FlightAware
03:05PM 38.2440 -121.7470 38° Northeast 442 509 19,600 1,860 Climbing FlightAware
03:05PM 38.3143 -121.6780 38° Northeast 451 519 20,900 1,800 Climbing FlightAware ADS-B
03:06PM 38.3783 -121.6160 37° Northeast 453 521 22,000 1,620 Climbing FlightAware ADS-B
03:07PM 38.4550 -121.5300 41° Northeast 480 552 23,300 1,680 Climbing FlightAware
03:07PM 38.4948 -121.4660 52° Northeast 472 543 24,200 1,500 Climbing FlightAware ADS-B
03:08PM 38.5760 -121.3250 54° Northeast 502 578 25,500 1,380 Climbing FlightAware
03:09PM 38.6053 -121.2750 53° Northeast 504 580 26,100 1,380 Climbing FlightAware ADS-B
03:09PM 38.6545 -121.1890 54° Northeast 508 585 26,800 1,020 Climbing FlightAware ADS-B
03:10PM 38.7460 -121.0300 54° Northeast 529 609 27,900 780 Climbing FlightAware
03:11PM 38.7740 -120.9820 53° Northeast 531 611 28,300 1,560 Climbing FlightAware
03:12PM 38.8480 -120.8540 53° Northeast 527 606 29,700 2,100 Climbing FlightAware
03:12PM 38.9200 -120.7290 53° Northeast 527 606 30,900 1,320 Climbing FlightAware
03:13PM 38.9730 -120.6380 53° Northeast 527 606 31,700 1,380 Climbing FlightAware
03:14PM 39.0600 -120.4880 53° Northeast 522 601 33,200 1,440 Climbing FlightAware
03:15PM 39.1300 -120.3650 54° Northeast 515 593 34,400 1,080 Climbing FlightAware
03:16PM 39.2000 -120.2420 54° Northeast 515 593 35,000 360 Climbing FlightAware
03:16PM 39.2590 -120.1390 53° Northeast 513 590 35,000  Level FlightAware
03:17PM 39.3220 -120.0280 54° Northeast 514 592 35,000  Level FlightAware
03:18PM 39.3710 -119.9410 54° Northeast 515 593 35,000  Level FlightAware
03:18PM 39.4390 -119.8210 54° Northeast 515 593 35,000  Level FlightAware
03:19PM 39.4950 -119.7210 54° Northeast 517 595 35,000  Level FlightAware
03:20PM 39.5560 -119.6120 54° Northeast 514 592 35,000  Level FlightAware
03:21PM 39.6420 -119.4570 54° Northeast 514 592 35,000 420 Level FlightAware
03:22PM 39.6940 -119.3330 61° Northeast 512 589 35,800 840 Climbing FlightAware
03:22PM 39.7400 -119.2060 65° Northeast 520 598 36,200 780 Climbing FlightAware
03:23PM 39.7860 -119.0840 64° Northeast 516 594 37,000 540 Climbing FlightAware
03:24PM 39.8300 -118.9710 63° Northeast 515 593 37,000  Level FlightAware
03:25PM 39.8740 -118.8550 64° Northeast 511 588 37,000  Level FlightAware
03:25PM 39.9170 -118.7450 63° Northeast 512 589 37,000  Level FlightAware
03:26PM 39.9630 -118.6250 63° Northeast 514 592 37,000  Level FlightAware
03:27PM 40.0060 -118.5110 64° Northeast 514 592 37,000  Level FlightAware
03:27PM 40.0480 -118.3970 64° Northeast 516 594 37,000  Level FlightAware
03:28PM 40.0810 -118.3040 65° Northeast 512 589 37,000  Level FlightAware
03:28PM 40.1200 -118.1970 64° Northeast 514 592 37,000  Level FlightAware
03:29PM 40.1630 -118.0800 64° Northeast 514 592 37,000  Level FlightAware
03:30PM 40.2110 -117.9520 64° Northeast 514 592 37,000  Level FlightAware
03:31PM 40.2450 -117.8610 64° Northeast 514 592 37,000  Level FlightAware
03:31PM 40.2760 -117.7780 64° Northeast 514 592 37,000  Level FlightAware
03:32PM 40.3080 -117.6920 64° Northeast 514 592 37,000  Level FlightAware
03:33PM 40.3530 -117.5710 64° Northeast 514 592 37,000  Level FlightAware
03:33PM 40.3850 -117.4850 64° Northeast 514 592 37,000  Level FlightAware
03:34PM 40.4280 -117.3680 64° Northeast 514 592 37,000  Level FlightAware
03:35PM 40.4600 -117.2820 64° Northeast 514 592 37,000  Level FlightAware
03:35PM 40.4830 -117.2200 64° Northeast 514 592 37,000  Level FlightAware
03:36PM 40.5270 -117.1030 64° Northeast 514 592 37,000  Level FlightAware
03:37PM 40.5600 -117.0120 64° Northeast 514 592 37,000  Level FlightAware
03:38PM 40.6130 -116.8680 64° Northeast 514 592 37,000  Level FlightAware
03:38PM 40.6350 -116.8110 63° Northeast 514 592 37,000  Level FlightAware
03:40PM 40.7903 -116.3550 63° Northeast 520 598 37,000  Level Salt Lake Center
03:41PM 40.8531 -116.1903 63° Northeast 522 601 37,000  Level Salt Lake Center
03:42PM 40.9269 -115.9997 63° Northeast 522 601 37,000  Level Salt Lake Center
03:43PM 40.9914 -115.8367 62° Northeast 522 601 37,000  Level Salt Lake Center
03:44PM 41.0606 -115.6461 64° Northeast 516 594 37,000  Level Salt Lake Center
03:45PM 41.1233 -115.4819 63° Northeast 519 597 37,000  Level Salt Lake Center
03:46PM 41.1944 -115.2894 64° Northeast 520 598 37,000  Level Salt Lake Center
03:47PM 41.2547 -115.1239 64° Northeast 520 598 37,000  Level Salt Lake Center
03:48PM 41.3250 -114.9372 63° Northeast 508 585 37,000  Level Salt Lake Center
03:49PM 41.3794 -114.7833 65° Northeast 507 583 37,000  Level Salt Lake Center
03:50PM 41.4422 -114.6119 64° Northeast 513 590 37,000  Level Salt Lake Center
03:51PM 41.5175 -114.4047 64° Northeast 517 595 37,000  Level Salt Lake Center
03:56PM 41.8510 -113.4690 64° Northeast 511 588 37,000  Level FlightAware
03:57PM 41.8850 -113.3700 65° Northeast 511 588 37,000  Level FlightAware
03:58PM 41.9190 -113.2730 65° Northeast 511 588 37,000  Level FlightAware
03:58PM 41.9500 -113.1840 65° Northeast 511 588 37,000  Level FlightAware
03:59PM 41.9920 -113.0620 65° Northeast 511 588 37,000  Level FlightAware
04:00PM 42.0220 -112.9760 65° Northeast 511 588 37,000  Level FlightAware
04:00PM 42.0690 -112.8410 65° Northeast 511 588 37,000  Level FlightAware
04:01PM 42.0990 -112.7530 65° Northeast 511 588 37,000  Level FlightAware
04:02PM 42.1370 -112.6420 65° Northeast 511 588 37,000  Level FlightAware
04:02PM 42.1660 -112.5590 65° Northeast 511 588 37,000  Level FlightAware
04:03PM 42.2060 -112.4430 65° Northeast 511 588 37,000  Level FlightAware
04:04PM 42.3106 -112.1097 65° Northeast 512 589 37,000  Level Salt Lake Center
04:05PM 42.3758 -111.9075 66° East 493 567 37,000  Level Salt Lake Center
04:06PM 42.4297 -111.7411 66° East 486 559 37,000  Level Salt Lake Center
04:07PM 42.4822 -111.5767 67° East 478 550 37,000  Level Salt Lake Center
04:08PM 42.5375 -111.4042 66° East 493 567 37,000  Level Salt Lake Center
04:09PM 42.5919 -111.2308 67° East 499 574 37,000  Level Salt Lake Center
04:10PM 42.6467 -111.0553 67° East 504 580 37,000  Level Salt Lake Center
04:12PM 42.7058 -110.8653 67° East 499 574 37,000  Level Salt Lake Center
04:13PM 42.7639 -110.6800 67° East 508 585 37,000  Level Salt Lake Center
04:14PM 42.8142 -110.5153 67° East 499 574 37,000  Level Salt Lake Center
04:15PM 42.8742 -110.3183 67° East 504 580 37,000  Level Salt Lake Center
04:16PM 42.9261 -110.1489 67° East 507 583 37,000  Level Salt Lake Center
04:17PM 42.9842 -109.9519 68° East 503 579 37,000  Level Salt Lake Center
04:18PM 43.0400 -109.7669 68° East 503 579 37,000  Level Salt Lake Center
04:19PM 43.0917 -109.5933 68° East 508 585 37,000  Level Salt Lake Center
04:20PM 43.1508 -109.3906 68° East 513 590 37,000  Level Salt Lake Center
04:21PM 43.2006 -109.2206 68° East 507 583 37,000  Level Salt Lake Center
04:22PM 43.2481 -109.0553 68° East 494 568 37,000  Level Salt Lake Center
04:23PM 43.3039 -108.8644 68° East 486 559 37,000  Level Salt Lake Center
04:24PM 43.3525 -108.6936 69° East 498 573 37,000  Level Salt Lake Center
04:25PM 43.4100 -108.4958 68° East 499 574 37,000  Level Salt Lake Center
04:26PM 43.4572 -108.3269 69° East 496 571 37,000  Level Salt Lake Center
04:27PM 43.5150 -108.1286 68° East 498 573 37,000  Level Salt Lake Center
04:28PM 43.5650 -107.9622 67° East 495 570 37,000  Level Salt Lake Center
04:29PM 43.6147 -107.7922 68° East 496 571 37,000  Level Salt Lake Center
04:30PM 43.6725 -107.5936 68° East 499 574 37,000  Level Salt Lake Center
04:31PM 43.7219 -107.4231 68° East 501 577 37,000  Level Salt Lake Center
04:32PM 43.7764 -107.2328 68° East 503 579 37,000  Level Salt Lake Center
04:33PM 43.8333 -107.0331 68° East 501 577 37,000  Level Salt Lake Center
04:34PM 43.8828 -106.8614 68° East 500 575 37,000  Level Salt Lake Center
04:35PM 43.9319 -106.6883 68° East 502 578 37,000  Level Salt Lake Center
04:36PM 43.9878 -106.4850 69° East 504 580 37,000  Level Salt Lake Center
04:37PM 44.0214 -106.3042 75° East 504 580 37,000  Level Salt Lake Center
04:38PM 44.0514 -106.0922 79° East 502 578 37,000  Level Salt Lake Center
04:39PM 44.0778 -105.9108 78° East 502 578 37,000  Level Salt Lake Center
04:40PM 44.1069 -105.7011 79° East 497 572 37,000  Level Salt Lake Center
04:41PM 44.1322 -105.5186 79° East 500 575 37,000  Level Salt Lake Center
04:42PM 44.1611 -105.3078 79° East 499 574 37,000  Level Salt Lake Center
04:43PM 44.1861 -105.1283 79° East 494 568 37,000  Level Salt Lake Center
04:44PM 44.2106 -104.9469 79° East 496 571 37,000  Level Salt Lake Center
04:46PM 44.2389 -104.7339 79° East 498 573 37,000  Level Salt Lake Center
04:47PM 44.2656 -104.5214 80° East 496 571 37,000  Level Denver Center
04:48PM 44.2897 -104.3431 79° East 492 566 37,000  Level Denver Center
04:49PM 44.3158 -104.1314 80° East 494 568 37,000  Level Denver Center
04:50PM 44.3389 -103.9494 80° East 495 570 37,000  Level Denver Center
04:51PM 44.3653 -103.7378 80° East 495 570 37,000  Level Denver Center
04:53PM 44.4064 -103.3961 80° East 490 564 37,000  Level Minneapolis Center
04:54PM 44.4286 -103.2086 81° East 490 564 37,000  Level Minneapolis Center
04:55PM 44.4500 -103.0225 81° East 488 562 37,000  Level Minneapolis Center
04:56PM 44.4758 -102.7972 81° East 489 563 37,000  Level Denver Center
04:57PM 44.4975 -102.6083 81° East 491 565 37,000  Level Denver Center
04:58PM 44.5231 -102.3839 81° East 489 563 37,000  Level Denver Center
04:59PM 44.5436 -102.1947 81° East 490 564 37,000  Level Denver Center
05:00PM 44.5642 -102.0067 81° East 490 564 37,000  Level Denver Center
05:01PM 44.5797 -101.8556 82° East 491 565 37,000  Level Denver Center
05:02PM 44.6025 -101.6289 82° East 489 563 37,000  Level Denver Center
05:03PM 44.6258 -101.4017 82° East 492 566 37,000  Level Denver Center
05:04PM 44.6431 -101.2114 83° East 493 567 37,000  Level Minneapolis Center
05:05PM 44.6583 -101.0586 82° East 494 568 37,000  Level Minneapolis Center
05:06PM 44.6797 -100.8342 82° East 490 564 37,000  Level Minneapolis Center
05:07PM 44.6975 -100.6447 82° East 490 564 37,000  Level Minneapolis Center
05:08PM 44.7150 -100.4578 82° East 487 560 37,000  Level Minneapolis Center
05:09PM 44.7317 -100.2708 83° East 486 559 37,000  Level Minneapolis Center
05:10PM 44.7511 -100.0469 83° East 486 559 37,000  Level Minneapolis Center
05:11PM 44.7678 -99.8628 83° East 483 556 37,000  Level Minneapolis Center
05:13PM 44.7833 -99.6781 83° East 482 555 37,000  Level Minneapolis Center
05:14PM 44.7997 -99.4947 83° East 478 550 37,000  Level Minneapolis Center
05:15PM 44.8186 -99.2728 83° East 478 550 37,000  Level Minneapolis Center
05:21PM 44.9030 -98.1820 83° East 465 535 37,000  Level FlightAware
05:21PM 44.9120 -98.0580 84° East 465 535 37,000  Level FlightAware
05:22PM 44.9190 -97.9500 85° East 468 539 37,000  Level FlightAware
05:23PM 44.9290 -97.8130 84° East 465 535 37,000  Level FlightAware
05:23PM 44.9370 -97.6820 85° East 463 533 37,000  Level FlightAware
05:24PM 44.9460 -97.5490 84° East 466 536 37,000  Level FlightAware
05:25PM 44.9550 -97.4240 84° East 467 537 37,000  Level FlightAware
05:25PM 44.9630 -97.2980 85° East 464 534 37,000  Level FlightAware
05:26PM 44.9710 -97.1670 85° East 466 536 37,000  Level FlightAware
05:27PM 44.9790 -97.0360 85° East 469 540 37,000  Level FlightAware
05:27PM 44.9860 -96.9230 85° East 468 539 37,000  Level FlightAware
05:28PM 44.9950 -96.7810 85° East 467 537 37,000  Level FlightAware
05:29PM 45.0020 -96.6620 85° East 472 543 37,000  Level FlightAware
05:30PM 45.0090 -96.5250 86° East 479 551 37,000  Level FlightAware
05:30PM 45.0170 -96.3990 85° East 482 555 37,000  Level FlightAware
05:31PM 45.0240 -96.2620 86° East 483 556 37,000  Level FlightAware
05:32PM 45.0310 -96.1360 85° East 485 558 37,000  Level FlightAware
05:32PM 45.0380 -95.9950 86° East 488 562 37,000  Level FlightAware
05:33PM 45.0470 -95.8370 85° East 488 562 37,000  Level FlightAware
05:34PM 45.0540 -95.6850 86° East 487 560 37,000  Level FlightAware
05:35PM 45.0600 -95.5700 86° East 486 559 37,000  Level FlightAware
05:35PM 45.0670 -95.4220 86° East 486 559 37,000  Level FlightAware
05:36PM 45.0730 -95.2920 86° East 487 560 37,000  Level FlightAware
05:37PM 45.0790 -95.1660 86° East 485 558 37,000  Level FlightAware
05:38PM 45.0850 -95.0190 87° East 488 562 37,000  Level FlightAware
05:38PM 45.0910 -94.8930 86° East 485 558 37,000  Level FlightAware
05:39PM 45.0970 -94.7520 87° East 482 555 37,000  Level FlightAware
05:40PM 45.1020 -94.6270 87° East 477 549 37,000  Level FlightAware
05:40PM 45.1070 -94.4910 87° East 477 549 37,000  Level FlightAware
05:41PM 45.1120 -94.3610 87° East 477 549 37,000  Level FlightAware
05:42PM 45.1170 -94.2350 87° East 478 550 37,000  Level FlightAware
05:42PM 45.1220 -94.1000 87° East 477 549 37,000  Level FlightAware
05:43PM 45.1270 -93.9690 87° East 475 547 37,000  Level FlightAware
05:44PM 45.1310 -93.8440 87° East 478 550 37,000  Level FlightAware
05:45PM 45.1350 -93.7110 88° East 485 558 37,000  Level FlightAware
05:45PM 45.1390 -93.5810 87° East 482 555 37,000  Level FlightAware
05:46PM 45.1430 -93.4420 88° East 480 552 37,000  Level FlightAware
05:47PM 45.1200 -93.3140 104° East 484 557 37,000  Level FlightAware
05:47PM 45.0790 -93.2130 120° Southeast 487 560 37,000  Level FlightAware
05:48PM 45.0270 -93.0860 120° Southeast 487 560 37,000  Level FlightAware
05:49PM 44.9870 -92.9910 121° Southeast 488 562 37,000  Level FlightAware
05:49PM 44.9330 -92.8640 121° Southeast 488 562 37,000  Level FlightAware
05:50PM 44.8820 -92.7430 121° Southeast 489 563 37,000  Level FlightAware
05:51PM 44.8340 -92.6310 121° Southeast 491 565 37,000  Level FlightAware
05:52PM 44.7900 -92.5270 121° Southeast 494 568 37,000  Level FlightAware
05:52PM 44.7360 -92.4010 121° Southeast 495 570 37,000  Level FlightAware
05:53PM 44.6890 -92.2910 121° Southeast 497 572 37,000  Level FlightAware
05:54PM 44.6420 -92.1820 121° Southeast 494 568 37,000  Level FlightAware
05:54PM 44.5840 -92.0480 121° Southeast 493 567 37,000  Level FlightAware
05:55PM 44.5370 -91.9410 122° Southeast 494 568 37,000  Level FlightAware
05:56PM 44.4910 -91.8350 121° Southeast 493 567 37,000  Level FlightAware
05:56PM 44.4340 -91.7060 122° Southeast 495 570 37,000  Level FlightAware
05:57PM 44.3860 -91.5960 121° Southeast 496 571 37,000  Level FlightAware
05:58PM 44.3330 -91.4780 122° Southeast 497 572 37,000  Level FlightAware
05:59PM 44.2830 -91.3660 122° Southeast 498 573 37,000  Level FlightAware
05:59PM 44.2310 -91.2480 122° Southeast 498 573 37,000  Level FlightAware
06:00PM 44.1780 -91.1290 122° Southeast 497 572 37,000  Level FlightAware
06:01PM 44.1290 -91.0210 122° Southeast 498 573 37,000  Level FlightAware
06:01PM 44.0760 -90.9020 122° Southeast 499 574 37,000  Level FlightAware
06:02PM 44.0260 -90.7930 123° Southeast 499 574 37,000  Level FlightAware
06:03PM 43.9760 -90.6830 122° Southeast 499 574 37,000  Level FlightAware
06:03PM 43.9230 -90.5660 122° Southeast 501 577 37,000  Level FlightAware
06:04PM 43.8700 -90.4510 123° Southeast 499 574 37,000  Level FlightAware
06:06PM 43.7980 -90.2950 123° Southeast 499 574 37,000  Level FlightAware
06:07PM 43.6810 -90.0430 123° Southeast 503 579 37,000  Level FlightAware
06:07PM 43.6280 -89.9280 122° Southeast 504 580 37,000  Level FlightAware
06:08PM 43.5830 -89.8310 123° Southeast 502 578 37,000  Level FlightAware
06:09PM 43.5430 -89.6860 111° Southeast 506 582 37,000  Level FlightAware
06:10PM 43.5260 -89.5600 100° East 508 585 37,000  Level FlightAware
06:10PM 43.5160 -89.4880 101° East 508 585 37,000  Level FlightAware
06:11PM 43.4820 -89.2370 100° East 507 583 37,000  Level FlightAware
06:12PM 43.4710 -89.1580 101° East 505 581 37,000  Level FlightAware
06:12PM 43.4490 -89.0030 101° East 500 575 37,000  Level FlightAware
06:13PM 43.4320 -88.8800 101° East 498 573 37,000  Level FlightAware
06:14PM 43.4120 -88.7430 101° East 498 573 37,000  Level FlightAware
06:14PM 43.3990 -88.6490 101° East 499 574 37,000  Level FlightAware
06:15PM 43.3800 -88.5190 101° East 503 579 37,000  Level FlightAware
06:16PM 43.3650 -88.4130 101° East 505 581 37,000  Level FlightAware
06:16PM 43.3430 -88.2650 102° East 500 575 37,000  Level FlightAware
06:17PM 43.3230 -88.1280 101° East 495 570 37,000  Level FlightAware
06:18PM 43.3070 -88.0190 101° East 491 565 37,000  Level FlightAware
06:19PM 43.2850 -87.8740 102° East 490 564 37,000  Level FlightAware
06:19PM 43.2670 -87.7500 101° East 493 567 37,000  Level FlightAware
06:20PM 43.2490 -87.6370 102° East 493 567 37,000  Level FlightAware
06:20PM 43.2350 -87.5400 101° East 493 567 37,000  Level FlightAware
06:21PM 43.2130 -87.3990 102° East 492 566 37,000  Level FlightAware
06:22PM 43.1940 -87.2790 102° East 492 566 37,000  Level FlightAware
06:22PM 43.1730 -87.1430 102° East 492 566 37,000  Level FlightAware
06:23PM 43.1490 -86.9890 102° East 496 571 37,000  Level FlightAware
06:24PM 43.1250 -86.8230 101° East 496 571 37,000  Level FlightAware
06:25PM 43.1120 -86.6860 97° East 496 571 37,000  Level FlightAware
06:26PM 43.0990 -86.5370 97° East 496 571 37,000  Level FlightAware
06:27PM 43.0850 -86.3720 97° East 499 574 37,000  Level FlightAware
06:27PM 43.0730 -86.2420 97° East 501 577 37,000  Level FlightAware
06:28PM 43.0600 -86.0990 97° East 502 578 37,000  Level FlightAware
06:29PM 43.0480 -85.9650 97° East 501 577 37,000  Level FlightAware
06:29PM 43.0370 -85.8530 98° East 501 577 37,000  Level FlightAware
06:30PM 43.0280 -85.7540 97° East 501 577 37,000  Level FlightAware
06:31PM 43.0160 -85.6280 97° East 502 578 37,000  Level FlightAware
06:31PM 43.0020 -85.4880 98° East 502 578 37,000  Level FlightAware
06:32PM 42.9880 -85.3500 98° East 506 582 37,000  Level FlightAware
06:33PM 42.9770 -85.2340 97° East 508 585 37,000  Level FlightAware
06:33PM 42.9630 -85.0970 98° East 508 585 37,000  Level FlightAware
06:34PM 42.9490 -84.9640 98° East 506 582 37,000  Level FlightAware
06:35PM 42.9340 -84.8200 98° East 508 585 37,000  Level FlightAware
06:36PM 42.9160 -84.6490 98° East 511 588 37,000  Level FlightAware
06:36PM 42.9020 -84.5130 98° East 513 590 37,000  Level FlightAware
06:37PM 42.8870 -84.3790 99° East 511 588 37,000  Level FlightAware
06:38PM 42.8740 -84.2530 98° East 509 586 37,000  Level FlightAware
06:39PM 42.8590 -84.1190 99° East 510 587 37,000  Level FlightAware
06:39PM 42.8440 -83.9850 99° East 513 590 37,000  Level FlightAware
06:40PM 42.8290 -83.8510 99° East 516 594 37,000  Level FlightAware
06:41PM 42.8130 -83.7120 99° East 519 597 37,000  Level FlightAware
06:41PM 42.7970 -83.5740 99° East 519 597 37,000  Level FlightAware
06:42PM 42.7830 -83.4500 99° East 519 597 37,000  Level FlightAware
06:43PM 42.7670 -83.3180 99° East 519 597 37,000  Level FlightAware
06:43PM 42.7500 -83.1750 99° East 520 598 37,000  Level FlightAware
06:44PM 42.7340 -83.0370 99° East 520 598 37,000  Level FlightAware
06:45PM 42.7110 -82.8490 99° East 522 601 37,000  Level FlightAware
06:46PM 42.6950 -82.7220 100° East 523 602 37,000  Level FlightAware
06:47PM 42.6730 -82.5410 99° East 523 602 37,000  Level FlightAware
06:47PM 42.6550 -82.4030 100° East 523 602 37,000  Level FlightAware
06:48PM 42.6400 -82.2870 100° East 522 601 37,000  Level FlightAware
06:49PM 42.6240 -82.1570 99° East 522 601 37,000  Level FlightAware
06:50PM 42.6060 -82.0220 100° East 522 601 37,000  Level FlightAware
06:51PM 42.5750 -81.7850 100° East 525 604 37,000  Level FlightAware
06:52PM 42.5500 -81.5980 100° East 524 603 37,000  Level FlightAware
06:52PM 42.5340 -81.4810 100° East 526 605 37,000  Level FlightAware
06:53PM 42.5140 -81.3300 100° East 524 603 37,000  Level FlightAware
06:54PM 42.4930 -81.1820 101° East 524 603 37,000  Level FlightAware
06:54PM 42.4780 -81.0700 100° East 525 604 37,000  Level FlightAware
06:55PM 42.4560 -80.9130 101° East 524 603 37,000  Level FlightAware
06:56PM 42.4380 -80.7850 101° East 523 602 37,000  Level FlightAware
06:57PM 42.4180 -80.6440 101° East 520 598 37,000  Level FlightAware
06:57PM 42.4010 -80.5270 101° East 518 596 37,000  Level FlightAware
06:58PM 42.3810 -80.3870 101° East 519 597 37,000  Level FlightAware
06:59PM 42.3610 -80.2550 102° East 521 600 37,000  Level FlightAware
06:59PM 42.3410 -80.1200 101° East 520 598 37,000  Level FlightAware
07:01PM 42.3030 -79.8610 101° East 520 598 37,000  Level FlightAware
07:01PM 42.2820 -79.7250 102° East 521 600 37,000  Level FlightAware
07:02PM 42.2590 -79.5710 101° East 522 601 37,000  Level FlightAware
07:03PM 42.2410 -79.4540 102° East 526 605 37,000  Level FlightAware
07:04PM 42.2150 -79.2860 102° East 529 609 37,000  Level FlightAware
07:04PM 42.1950 -79.1630 102° East 529 609 37,000  Level FlightAware
07:05PM 42.1570 -78.9890 106° East 530 610 37,000  Level FlightAware
07:06PM 42.1220 -78.8520 109° East 533 613 37,000  Level FlightAware
07:07PM 42.0870 -78.7190 109° East 536 617 37,000  Level FlightAware
07:08PM 42.0480 -78.5660 109° East 537 618 37,000  Level FlightAware
07:08PM 42.0160 -78.4370 108° East 538 619 37,000  Level FlightAware
07:09PM 41.9630 -78.2290 109° East 539 620 37,000  Level FlightAware
07:10PM 41.9330 -78.1140 109° East 540 621 37,000  Level FlightAware
07:11PM 41.8840 -77.9240 109° East 546 628 37,000  Level FlightAware
07:12PM 41.8550 -77.8130 109° East 546 628 37,000  Level FlightAware
07:12PM 41.8170 -77.6680 109° East 548 631 37,000  Level FlightAware
07:13PM 41.7760 -77.5130 109° East 548 631 37,000  Level FlightAware
07:14PM 41.7410 -77.3840 110° East 545 627 37,000  Level FlightAware
07:14PM 41.7120 -77.2730 109° East 543 625 37,000  Level FlightAware
07:15PM 41.6720 -77.1250 110° East 545 627 37,000  Level FlightAware
07:16PM 41.6370 -76.9960 110° East 542 624 37,000  Level FlightAware
07:16PM 41.5961 -76.8466 110° East 539 620 37,000  Level FlightAware ADS-B
07:17PM 41.5670 -76.7420 110° East 537 618 37,000  Level FlightAware
07:18PM 41.5425 -76.6515 110° East 537 618 37,000  Level FlightAware ADS-B
07:18PM 41.5053 -76.5166 110° East 545 627 37,000  Level FlightAware ADS-B
07:19PM 41.4782 -76.4186 110° East 547 629 37,000  Level FlightAware ADS-B
07:19PM 41.4501 -76.3173 110° East 547 629 37,000 -120 Level FlightAware ADS-B
07:20PM 41.4228 -76.2196 110° East 543 625 36,900 -720 Descending FlightAware ADS-B
07:20PM 41.3947 -76.1192 110° East 539 620 36,300 -1,920 Descending FlightAware ADS-B
07:21PM 41.3674 -76.0226 111° Southeast 541 623 34,900 -2,940 Descending FlightAware ADS-B
07:21PM 41.3388 -75.9218 111° Southeast 537 618 33,200 -3,060 Descending FlightAware ADS-B
07:22PM 41.3107 -75.8232 111° Southeast 529 609 31,600 -3,660 Descending FlightAware ADS-B
07:22PM 41.2829 -75.7270 111° Southeast 529 609 29,300 -3,600 Descending FlightAware ADS-B
07:23PM 41.2522 -75.6285 112° Southeast 509 586 27,700 -2,760 Descending FlightAware ADS-B
07:24PM 41.2244 -75.5437 114° Southeast 501 577 26,400 -2,580 Descending FlightAware ADS-B
07:24PM 41.1940 -75.4524 114° Southeast 507 583 25,000 -2,700 Descending FlightAware ADS-B
07:25PM 41.1603 -75.3525 114° Southeast 499 574 23,400 -1,860 Descending FlightAware ADS-B
07:25PM 41.1317 -75.2678 114° Southeast 491 565 23,000 -420 Descending FlightAware ADS-B
07:26PM 41.1035 -75.1844 114° Southeast 492 566 23,000  Level FlightAware ADS-B
07:26PM 41.0749 -75.1004 114° Southeast 495 570 23,000  Level FlightAware ADS-B
07:27PM 41.0448 -75.0119 114° Southeast 496 571 23,000  Level FlightAware ADS-B
07:27PM 41.0151 -74.9240 114° Southeast 495 570 23,000  Level FlightAware ADS-B
07:27PM 41.0035 -74.8823 110° East 496 571 23,000  Level FlightAware ADS-B
07:28PM 40.9900 -74.8109 104° East 497 572 23,000  Level FlightAware ADS-B
07:28PM 40.9884 -74.7990 100° East 495 570 23,000  Level FlightAware ADS-B
07:28PM 40.9831 -74.7562 99° East 497 572 23,000  Level FlightAware ADS-B
07:28PM 40.9788 -74.7180 98° East 497 572 23,000  Level FlightAware ADS-B
07:29PM 40.9729 -74.6634 98° East 497 572 23,000  Level FlightAware ADS-B
07:29PM 40.9691 -74.6280 98° East 497 572 23,000 -420 Level FlightAware ADS-B
07:29PM 40.9583 -74.5253 98° East 489 563 22,700 -1,380 Descending FlightAware ADS-B
07:30PM 40.9482 -74.4336 98° East 477 549 21,500 -2,520 Descending FlightAware ADS-B
07:31PM 40.9388 -74.3486 98° East 465 535 20,100 -2,340 Descending FlightAware ADS-B
07:31PM 40.9297 -74.2701 99° East 437 503 19,200 -1,740 Descending FlightAware ADS-B
07:31PM 40.9253 -74.2467 104° East 425 489 19,000 -840 Descending FlightAware ADS-B
07:31PM 40.9216 -74.2324 109° East 418 481 19,000  Level FlightAware ADS-B
07:31PM 40.9169 -74.2181 114° Southeast 409 471 19,000  Level FlightAware ADS-B
07:31PM 40.9098 -74.2010 119° Southeast 394 453 19,000 -300 Level FlightAware ADS-B
07:32PM 40.8967 -74.1774 126° Southeast 378 435 18,900 -600 Descending FlightAware ADS-B
07:32PM 40.8852 -74.1626 136° Southeast 368 423 18,800 -1,440 Descending FlightAware ADS-B
07:32PM 40.8421 -74.1214 144° Southeast 350 403 17,900 -1,740 Descending FlightAware ADS-B
07:32PM 40.8385 -74.1181 145° Southeast 349 402 17,800 -2,760 Descending FlightAware ADS-B
07:33PM 40.8273 -74.1091 149° Southeast 347 399 17,400 -2,640 Descending FlightAware ADS-B
07:33PM 40.8017 -74.0964 159° South 340 391 16,700 -2,340 Descending FlightAware ADS-B
07:33PM 40.8003 -74.0959 165° South 341 392 16,700 -1,860 Level FlightAware ADS-B
07:33PM 40.7671 -74.0837 164° South 340 391 16,000 -1,680 Descending FlightAware ADS-B
07:33PM 40.7559 -74.0800 166° South 340 391 15,900 -420 Descending FlightAware ADS-B
07:34PM 40.7202 -74.0682 166° South 339 390 15,800 -180 Descending FlightAware ADS-B
07:34PM 40.6854 -74.0565 166° South 340 391 15,800 -180 Level FlightAware ADS-B
07:34PM 40.6687 -74.0509 166° South 338 389 15,700 -1,200 Descending FlightAware ADS-B
07:35PM 40.6214 -74.0349 166° South 333 383 15,000 -1,380 Descending FlightAware ADS-B
07:35PM 40.5634 -74.0157 166° South 331 381 14,100 -1,440 Descending FlightAware ADS-B
07:36PM 40.5125 -73.9914 160° South 324 373 13,200 -1,380 Descending FlightAware ADS-B
07:36PM 40.4994 -73.9769 140° Southeast 322 371 13,000 -540 Descending FlightAware ADS-B
07:37PM 40.4628 -73.9318 137° Southeast 323 372 12,800 -600 Descending FlightAware ADS-B
07:37PM 40.4298 -73.8911 137° Southeast 322 371 12,400 -1,620 Descending FlightAware ADS-B
07:38PM 40.3975 -73.8511 137° Southeast 313 360 11,200 -2,340 Descending FlightAware ADS-B
07:38PM 40.3611 -73.8068 137° Southeast 304 350 9,900 -2,160 Descending FlightAware ADS-B
07:39PM 40.3451 -73.7877 138° Southeast 302 348 9,400 -1,680 Descending FlightAware ADS-B
07:39PM 40.3244 -73.7631 138° Southeast 297 342 8,900 -1,380 Descending FlightAware ADS-B
07:39PM 40.3087 -73.7443 138° Southeast 295 339 8,600 -1,260 Descending FlightAware ADS-B
07:39PM 40.2999 -73.7334 137° Southeast 292 336 8,400 -1,500 Descending FlightAware ADS-B
07:40PM 40.2938 -73.7236 129° Southeast 291 335 8,200 -1,140 Descending FlightAware ADS-B
07:40PM 40.2916 -73.7188 121° Southeast 290 334 8,200 -600 Level FlightAware ADS-B
07:40PM 40.2950 -73.6580 86° East 280 322 7,800 -480 Descending FlightAware
07:40PM 40.3073 -73.6442 41° Northeast 278 320 7,800  Level FlightAware ADS-B
07:41PM 40.3156 -73.6376 31° Northeast 279 321 7,800 -540 Level FlightAware ADS-B
07:41PM 40.3347 -73.6241 28° Northeast 277 319 7,600 -600 Descending FlightAware ADS-B
07:41PM 40.3633 -73.6041 28° Northeast 276 318 7,400 -540 Descending FlightAware ADS-B
07:42PM 40.3882 -73.5864 28° Northeast 272 313 7,200 -480 Descending FlightAware ADS-B
07:42PM 40.4221 -73.5625 28° Northeast 272 313 7,000 -360 Descending FlightAware ADS-B
07:43PM 40.4667 -73.5317 28° Northeast 272 313 6,800 -240 Descending FlightAware ADS-B
07:43PM 40.4886 -73.5163 28° Northeast 271 312 6,800  Level FlightAware ADS-B
07:43PM 40.5084 -73.5023 28° Northeast 272 313 6,800 -300 Level FlightAware ADS-B
07:44PM 40.5421 -73.4784 28° Northeast 272 313 6,600 -1,020 Descending FlightAware ADS-B
07:44PM 40.5750 -73.4704 10° North 259 298 5,800 -1,680 Descending FlightAware ADS-B
07:45PM 40.6230 -73.4840 348° North 255 293 4,700 -1,500 Descending FlightAware
07:46PM 40.6590 -73.4940 348° North 256 295 4,000 -1,020 Descending FlightAware
07:46PM 40.6860 -73.5020 347° North 243 280 3,800 -300 Descending FlightAware
07:46PM 40.7070 -73.5080 348° North 225 259 3,800 -180 Level FlightAware
07:47PM 40.7320 -73.5150 348° North 213 245 3,700 -720 Descending FlightAware
07:47PM 40.7580 -73.5230 347° North 210 242 3,200 -720 Descending FlightAware
07:48PM 40.7860 -73.5310 348° North 197 227 3,000 -540 Descending FlightAware
07:48PM 40.7960 -73.5400 326° Northwest 191 220 2,800 -720 Descending FlightAware
07:48PM 40.8020 -73.5530 301° West 184 212 2,700 -600 Descending FlightAware
07:48PM 40.8020 -73.5600 270° West 182 209 2,600 -960 Descending FlightAware
07:49PM 40.8000 -73.6010 266° West 185 213 2,000 -900 Descending FlightAware
07:49PM 40.7980 -73.6250 264° West 178 205 1,800 -180 Descending FlightAware
07:50PM 40.7860 -73.6420 227° Southwest 179 206 1,900  Climbing FlightAware
07:50PM 40.7800 -73.6480 217° Southwest 180 207 1,800 -120 Descending FlightAware
07:51PM 40.7510 -73.6730 213° Southwest 174 200 1,800  Level FlightAware
07:51PM 40.7330 -73.6870 211° Southwest 169 194 1,800 -480 Level FlightAware
07:51PM 40.7130 -73.7020 210° Southwest 152 175 1,400 -840 Descending FlightAware
07:52PM 40.6960 -73.7150 210° Southwest 131 151 1,000 -720 Descending FlightAware
07:52PM 40.6810 -73.7270 211° Southwest 129 148 700 -660 Descending FlightAware
07:53PM 40.6760 -73.7310 211° Southwest 126 145 600 -600 Descending FlightAware
07:53PM 40.6610 -73.7430 211° Southwest 130 150 300 -720 Descending FlightAware
07:53PM 40.6550 -73.7470 207° Southwest 127 146 100 -1,020 Descending FlightAware
07:54PM 40.6390 -73.7600 212° Southwest 123 142 -240 Descending FlightAware
07:54PM 40.6350 -73.7630 210° Southwest 105 121  Level FlightAware
07:54PM 40.6300 -73.7680 217° Southwest 23 26  Level FlightAware
07:55PM 40.6300 -73.7700 270° West 18 21  Level FlightAware
07:55PM 40.6320 -73.7700 360° North 21 24  Level FlightAware